createdAt,value
2023-02-09T00:02:23.421Z,71.84
2023-02-09T00:04:55.692Z,71.57
2023-02-09T00:07:27.848Z,71.70
2023-02-09T00:09:59.954Z,71.45
2023-02-09T00:12:50.952Z,71.43
2023-02-09T00:15:23.183Z,71.10
2023-02-09T00:17:55.097Z,71.11
2023-02-09T00:20:27.820Z,71.01
2023-02-09T00:22:59.900Z,70.94
2023-02-09T00:25:31.979Z,70.77
2023-02-09T00:28:04.187Z,70.62
2023-02-09T00:30:37.906Z,71.05
2023-02-09T00:33:10.220Z,70.74
2023-02-09T00:35:43.216Z,70.61
2023-02-09T00:38:15.512Z,70.95
2023-02-09T00:40:48.470Z,70.70
2023-02-09T00:43:20.505Z,70.96
2023-02-09T00:45:52.722Z,71.00
2023-02-09T00:48:24.844Z,71.08
2023-02-09T00:50:57.363Z,72.01
2023-02-09T00:53:30.598Z,70.95
2023-02-09T00:56:02.830Z,70.93
2023-02-09T00:58:35.062Z,71.18
2023-02-09T01:01:07.253Z,70.97
2023-02-09T01:03:40.480Z,71.13
2023-02-09T01:06:12.773Z,70.82
2023-02-09T01:08:45.013Z,70.70
2023-02-09T01:11:18.078Z,70.54
2023-02-09T01:13:50.350Z,70.70
2023-02-09T01:16:22.756Z,70.76
2023-02-09T01:18:56.454Z,71.41
2023-02-09T01:21:29.184Z,71.04
2023-02-09T01:24:01.296Z,71.11
2023-02-09T01:26:33.485Z,71.81
2023-02-09T01:29:05.732Z,72.61
2023-02-09T01:31:41.122Z,71.93
2023-02-09T01:34:18.617Z,72.38
2023-02-09T01:36:51.251Z,71.74
2023-02-09T01:39:23.409Z,72.30
2023-02-09T01:41:56.710Z,71.82
2023-02-09T01:44:32.052Z,72.48
2023-02-09T01:47:04.783Z,72.03
2023-02-09T01:49:36.962Z,71.15
2023-02-09T01:52:18.331Z,71.50
2023-02-09T01:55:14.527Z,72.44
2023-02-09T01:57:53.381Z,73.98
2023-02-09T02:00:27.918Z,72.97
2023-02-09T02:03:06.597Z,72.26
2023-02-09T02:05:42.886Z,72.38
2023-02-09T02:08:30.982Z,72.07
2023-02-09T02:11:04.688Z,71.74
2023-02-09T02:13:37.479Z,72.39
2023-02-09T02:16:37.655Z,72.19
2023-02-09T02:19:29.352Z,71.97
2023-02-09T02:22:15.703Z,72.46
2023-02-09T02:25:16.077Z,72.06
2023-02-09T02:28:21.743Z,72.10
2023-02-09T02:31:07.984Z,72.19
2023-02-09T02:34:11.860Z,71.95
2023-02-09T02:37:11.586Z,72.08
2023-02-09T02:39:56.076Z,71.39
2023-02-09T02:42:49.702Z,71.53
2023-02-09T02:45:25.813Z,71.06
2023-02-09T02:48:12.141Z,71.03
2023-02-09T02:51:04.984Z,71.46
2023-02-09T02:53:41.872Z,70.86
2023-02-09T02:56:25.535Z,70.66
2023-02-09T02:59:02.546Z,71.05
2023-02-09T03:01:41.948Z,70.77
2023-02-09T03:04:16.786Z,70.19
2023-02-09T03:06:49.273Z,70.04
2023-02-09T03:09:21.705Z,70.27
2023-02-09T03:12:00.945Z,69.84
2023-02-09T03:14:42.507Z,70.00
2023-02-09T03:17:46.993Z,69.84
2023-02-09T03:20:47.609Z,69.90
2023-02-09T03:23:37.650Z,69.79
2023-02-09T03:26:19.653Z,69.93
2023-02-09T03:28:55.812Z,70.06
2023-02-09T03:31:29.606Z,70.08
2023-02-09T03:34:02.174Z,69.95
2023-02-09T03:36:38.428Z,69.59
2023-02-09T03:39:10.835Z,69.73
2023-02-09T03:41:43.206Z,69.78
2023-02-09T03:44:29.880Z,69.92
2023-02-09T03:47:05.420Z,69.78
2023-02-09T03:49:40.652Z,69.49
2023-02-09T03:52:15.182Z,69.96
2023-02-09T03:54:54.348Z,69.35
2023-02-09T03:57:28.151Z,69.35
2023-02-09T04:00:01.732Z,69.22
2023-02-09T04:02:39.780Z,69.33
2023-02-09T04:05:13.040Z,68.91
2023-02-09T04:07:45.495Z,69.14
2023-02-09T04:10:17.800Z,69.21
2023-02-09T04:12:50.107Z,69.04
2023-02-09T04:15:22.487Z,69.03
2023-02-09T04:17:55.021Z,68.75
2023-02-09T04:20:27.447Z,68.71
2023-02-09T04:22:59.846Z,68.89
2023-02-09T04:25:32.119Z,68.50
2023-02-09T04:28:04.754Z,68.63
2023-02-09T04:30:37.408Z,68.71
2023-02-09T04:33:13.194Z,68.56
2023-02-09T04:35:46.001Z,68.73
2023-02-09T04:38:21.217Z,68.53
2023-02-09T04:40:55.241Z,68.42
2023-02-09T04:43:30.952Z,68.42
2023-02-09T04:46:03.508Z,68.51
2023-02-09T04:48:35.981Z,68.54
2023-02-09T04:51:08.713Z,68.21
2023-02-09T04:53:41.446Z,68.60
2023-02-09T04:56:17.182Z,68.45
2023-02-09T04:59:08.052Z,68.60
2023-02-09T05:01:40.381Z,68.34
2023-02-09T05:04:12.885Z,68.18
2023-02-09T05:06:47.497Z,68.36
2023-02-09T05:12:12.316Z,68.44
2023-02-09T05:14:44.610Z,68.65
2023-02-09T05:17:21.593Z,68.72
2023-02-09T05:19:54.053Z,68.85
2023-02-09T05:22:27.669Z,68.95
2023-02-09T05:24:59.762Z,68.87
2023-02-09T05:27:32.175Z,69.30
2023-02-09T05:30:06.514Z,69.41
2023-02-09T05:32:40.849Z,69.83
2023-02-09T05:35:13.900Z,69.78
2023-02-09T05:37:46.234Z,69.78
2023-02-09T05:43:08.408Z,70.06
2023-02-09T05:45:40.754Z,69.91
2023-02-09T05:50:53.610Z,70.15
2023-02-09T05:56:07.499Z,70.58
2023-02-09T06:07:57.437Z,70.68
2023-02-09T06:10:31.215Z,70.84
2023-02-09T06:13:03.513Z,70.95
2023-02-09T06:15:36.025Z,71.10
2023-02-09T06:18:08.671Z,70.81
2023-02-09T06:23:35.296Z,71.21
2023-02-09T06:26:09.051Z,71.15
2023-02-09T06:28:41.800Z,71.25
2023-02-09T06:31:14.907Z,71.24
2023-02-09T06:33:47.816Z,71.29
2023-02-09T06:36:20.399Z,71.01
2023-02-09T06:38:54.564Z,70.95
2023-02-09T06:41:28.693Z,70.82
2023-02-09T06:44:01.754Z,70.95
2023-02-09T06:46:35.213Z,70.92
2023-02-09T06:49:07.427Z,70.86
2023-02-09T06:51:39.807Z,71.08
2023-02-09T06:54:12.085Z,70.88
2023-02-09T06:56:44.085Z,70.92
2023-02-09T06:59:18.725Z,70.74
2023-02-09T07:01:54.886Z,70.81
2023-02-09T07:04:28.405Z,71.11
2023-02-09T07:07:00.634Z,70.69
2023-02-09T07:09:32.842Z,70.58
2023-02-09T07:12:05.072Z,70.79
2023-02-09T07:14:37.317Z,70.76
2023-02-09T07:17:09.558Z,70.76
2023-02-09T07:19:41.620Z,70.70
2023-02-09T07:22:14.131Z,70.84
2023-02-09T07:24:46.314Z,70.51
2023-02-09T07:27:19.618Z,70.41
2023-02-09T07:29:51.865Z,70.11
2023-02-09T07:32:24.284Z,69.90
2023-02-09T07:34:56.403Z,69.45
2023-02-09T07:37:28.631Z,69.30
2023-02-09T07:40:00.778Z,69.09
2023-02-09T07:42:32.918Z,68.84
2023-02-09T07:45:05.181Z,68.72
2023-02-09T07:47:38.988Z,68.75
2023-02-09T07:50:11.027Z,68.48
2023-02-09T07:52:43.062Z,67.95
2023-02-09T07:55:15.063Z,68.07
2023-02-09T07:57:47.179Z,67.81
2023-02-09T08:00:19.659Z,67.71
2023-02-09T08:02:51.921Z,67.69
2023-02-09T08:05:30.934Z,67.45
2023-02-09T08:08:02.958Z,67.21
2023-02-09T08:10:35.461Z,67.17
2023-02-09T08:13:07.527Z,66.68
2023-02-09T08:15:47.538Z,66.72
2023-02-09T08:18:32.923Z,66.54
2023-02-09T08:21:08.520Z,66.23
2023-02-09T08:23:42.767Z,66.03
2023-02-09T08:26:15.417Z,65.81
2023-02-09T08:28:47.821Z,65.40
2023-02-09T08:31:21.960Z,65.32
2023-02-09T08:33:54.546Z,65.06
2023-02-09T08:36:26.849Z,64.85
2023-02-09T08:38:58.877Z,64.50
2023-02-09T08:41:31.572Z,64.48
2023-02-09T08:44:03.652Z,64.14
2023-02-09T08:46:36.303Z,63.88
2023-02-09T08:49:08.294Z,63.31
2023-02-09T08:51:40.424Z,63.31
2023-02-09T08:54:12.313Z,63.24
2023-02-09T08:56:44.488Z,63.29
2023-02-09T08:59:17.884Z,63.42
2023-02-09T09:01:51.610Z,63.46
2023-02-09T09:04:23.585Z,63.45
2023-02-09T09:06:55.663Z,63.11
2023-02-09T09:09:27.637Z,62.86
2023-02-09T09:11:59.754Z,62.60
2023-02-09T09:14:32.247Z,62.12
2023-02-09T09:17:04.254Z,61.66
2023-02-09T09:19:36.254Z,61.07
2023-02-09T09:22:08.300Z,60.62
2023-02-09T09:24:43.422Z,60.37
2023-02-09T09:27:15.965Z,60.37
2023-02-09T09:29:47.877Z,59.73
2023-02-09T09:32:25.106Z,59.78
2023-02-09T09:34:59.293Z,59.24
2023-02-09T09:37:31.180Z,59.15
2023-02-09T09:40:03.430Z,59.38
2023-02-09T09:42:45.018Z,58.61
2023-02-09T09:45:21.860Z,58.82
2023-02-09T09:47:57.642Z,58.73
2023-02-09T09:50:39.385Z,58.24
2023-02-09T09:53:36.491Z,57.85
2023-02-09T09:56:10.128Z,57.94
2023-02-09T09:58:44.369Z,57.83
2023-02-09T10:01:19.577Z,58.01
2023-02-09T10:03:51.566Z,57.63
2023-02-09T10:06:23.640Z,57.25
2023-02-09T10:09:08.068Z,57.51
2023-02-09T10:11:49.117Z,57.50
2023-02-09T10:14:23.487Z,57.43
2023-02-09T10:16:55.719Z,57.53
2023-02-09T10:19:28.207Z,57.22
2023-02-09T10:22:00.105Z,57.25
2023-02-09T10:24:34.029Z,57.79
2023-02-09T10:27:05.987Z,57.34
2023-02-09T10:29:38.231Z,56.90
2023-02-09T10:32:22.065Z,56.71
2023-02-09T10:34:57.294Z,56.75
2023-02-09T10:37:38.930Z,56.83
2023-02-09T10:40:28.297Z,55.71
2023-02-09T10:43:27.597Z,55.96
2023-02-09T10:46:10.570Z,55.11
2023-02-09T10:48:45.341Z,54.54
2023-02-09T10:51:30.050Z,54.55
2023-02-09T10:54:08.328Z,54.79
2023-02-09T10:56:46.454Z,54.10
2023-02-09T10:59:21.738Z,53.19
2023-02-09T11:02:00.360Z,53.05
2023-02-09T11:04:41.027Z,53.17
2023-02-09T11:07:15.213Z,52.57
2023-02-09T11:09:50.070Z,52.58
2023-02-09T11:12:23.238Z,52.80
2023-02-09T11:14:56.008Z,51.56
2023-02-09T11:17:37.550Z,52.14
2023-02-09T11:20:35.955Z,52.29
2023-02-09T11:23:23.074Z,52.75
2023-02-09T11:26:04.344Z,51.13
2023-02-09T11:28:59.614Z,51.68
2023-02-09T11:31:54.983Z,51.92
2023-02-09T11:34:42.124Z,51.68
2023-02-09T11:37:20.082Z,52.18
2023-02-09T11:39:58.008Z,52.23
2023-02-09T11:42:45.581Z,52.30
2023-02-09T11:45:35.600Z,51.60
2023-02-09T11:48:16.913Z,51.26
2023-02-09T11:50:51.907Z,51.41
2023-02-09T11:53:35.066Z,51.68
2023-02-09T11:56:12.014Z,51.32
2023-02-09T11:59:02.364Z,51.54
2023-02-09T12:02:00.736Z,50.54
2023-02-09T12:04:44.133Z,49.27
2023-02-09T12:07:34.874Z,50.55
2023-02-09T12:10:31.109Z,50.15
2023-02-09T12:13:03.050Z,50.53
2023-02-09T12:15:50.883Z,49.75
2023-02-09T12:18:26.663Z,50.00
2023-02-09T12:21:01.452Z,49.72
2023-02-09T12:23:36.858Z,49.70
2023-02-09T12:26:11.866Z,49.89
2023-02-09T12:29:04.801Z,50.04
2023-02-09T12:32:06.450Z,49.27
2023-02-09T12:34:53.340Z,48.78
2023-02-09T12:37:28.860Z,48.97
2023-02-09T12:40:03.863Z,49.27
2023-02-09T12:42:46.446Z,48.46
2023-02-09T12:45:39.915Z,47.68
2023-02-09T12:48:15.425Z,48.09
2023-02-09T12:50:51.688Z,48.75
2023-02-09T12:53:23.748Z,47.61
2023-02-09T12:56:09.380Z,47.40
2023-02-09T12:58:44.230Z,48.18
2023-02-09T13:01:17.445Z,47.91
2023-02-09T13:04:00.204Z,47.04
2023-02-09T13:06:45.245Z,47.31
2023-02-09T13:09:33.150Z,47.38
2023-02-09T13:12:19.863Z,46.86
2023-02-09T13:14:51.815Z,47.12
2023-02-09T13:17:38.576Z,47.81
2023-02-09T13:20:44.764Z,46.70
2023-02-09T13:23:16.820Z,47.73
2023-02-09T13:25:49.033Z,47.34
2023-02-09T13:28:22.977Z,47.25
2023-02-09T13:30:55.191Z,47.59
2023-02-09T13:33:51.265Z,47.18
2023-02-09T13:36:30.190Z,47.45
2023-02-09T13:39:02.322Z,46.83
2023-02-09T13:41:40.910Z,46.88
2023-02-09T13:44:27.468Z,47.13
2023-02-09T13:47:01.360Z,47.17
2023-02-09T13:49:33.802Z,47.54
2023-02-09T13:52:15.227Z,47.91
2023-02-09T13:54:47.503Z,47.51
2023-02-09T13:57:19.434Z,47.54
2023-02-09T13:59:51.646Z,48.24
2023-02-09T14:02:27.451Z,47.25
2023-02-09T14:05:03.028Z,47.26
2023-02-09T14:07:37.984Z,48.24
2023-02-09T14:10:17.317Z,46.93
2023-02-09T14:13:04.358Z,48.49
2023-02-09T14:15:59.998Z,48.26
2023-02-09T14:19:01.573Z,47.97
2023-02-09T14:21:40.371Z,48.52
2023-02-09T14:24:26.047Z,48.78
2023-02-09T14:27:21.000Z,48.81
2023-02-09T14:29:54.777Z,48.67
2023-02-09T14:32:38.505Z,49.05
2023-02-09T14:35:29.244Z,49.51
2023-02-09T14:38:02.473Z,48.66
2023-02-09T14:40:37.429Z,49.92
2023-02-09T14:43:09.324Z,49.84
2023-02-09T14:45:48.386Z,49.68
2023-02-09T14:48:25.876Z,49.96
2023-02-09T14:51:02.766Z,50.19
2023-02-09T14:53:34.842Z,50.44
2023-02-09T14:56:13.267Z,50.91
2023-02-09T14:58:45.143Z,50.64
2023-02-09T15:01:17.344Z,51.10
2023-02-09T15:03:49.262Z,51.35
2023-02-09T15:06:21.423Z,51.16
2023-02-09T15:08:53.395Z,51.28
2023-02-09T15:11:44.042Z,51.39
2023-02-09T15:14:16.769Z,50.32
2023-02-09T15:16:48.756Z,50.57
2023-02-09T15:19:22.718Z,50.61
2023-02-09T15:22:06.564Z,50.76
2023-02-09T15:24:38.711Z,50.79
2023-02-09T15:27:41.772Z,51.07
2023-02-09T15:30:16.056Z,51.50
2023-02-09T15:32:48.469Z,51.68
2023-02-09T15:35:23.417Z,51.99
2023-02-09T15:37:57.968Z,52.45
2023-02-09T15:40:52.368Z,53.44
2023-02-09T15:43:44.565Z,53.39
2023-02-09T15:46:36.085Z,53.42
2023-02-09T15:49:08.156Z,53.54
2023-02-09T15:51:41.454Z,53.65
2023-02-09T15:54:20.568Z,53.88
2023-02-09T15:56:52.452Z,53.89
2023-02-09T15:59:24.700Z,53.76
2023-02-09T16:01:59.005Z,53.62
2023-02-09T16:04:32.023Z,53.53
2023-02-09T16:07:04.182Z,53.16
2023-02-09T16:09:36.572Z,53.25
2023-02-09T16:12:11.952Z,53.27
2023-02-09T16:14:43.946Z,53.54
2023-02-09T16:17:15.956Z,53.46
2023-02-09T16:19:49.315Z,53.62
2023-02-09T16:22:23.959Z,53.82
2023-02-09T16:24:55.897Z,53.11
2023-02-09T16:27:29.005Z,53.59
2023-02-09T16:30:01.095Z,53.50
2023-02-09T16:32:33.185Z,53.71
2023-02-09T16:35:16.208Z,53.12
2023-02-09T16:37:50.699Z,53.03
2023-02-09T16:40:31.278Z,53.61
2023-02-09T16:43:03.354Z,53.17
2023-02-09T16:45:37.422Z,53.61
2023-02-09T16:48:20.078Z,53.42
2023-02-09T16:50:54.258Z,52.97
2023-02-09T16:53:33.077Z,53.27
2023-02-09T16:56:10.449Z,53.36
2023-02-09T16:58:43.672Z,53.14
2023-02-09T17:01:22.270Z,53.23
2023-02-09T17:03:56.797Z,53.17
2023-02-09T17:06:30.269Z,53.34
2023-02-09T17:09:02.114Z,53.30
2023-02-09T17:11:34.103Z,53.37
2023-02-09T17:14:06.800Z,53.25
2023-02-09T17:16:41.961Z,53.40
2023-02-09T17:19:18.596Z,53.68
2023-02-09T17:21:50.592Z,53.52
2023-02-09T17:24:22.611Z,53.42
2023-02-09T17:26:54.489Z,53.69
2023-02-09T17:29:26.364Z,54.03
2023-02-09T17:31:58.827Z,54.04
2023-02-09T17:34:30.765Z,54.17
2023-02-09T17:37:02.684Z,54.58
2023-02-09T17:39:34.585Z,54.13
2023-02-09T17:42:06.691Z,54.02
2023-02-09T17:44:46.158Z,54.25
2023-02-09T17:47:20.370Z,54.06
2023-02-09T17:49:52.330Z,54.21
2023-02-09T17:52:24.260Z,54.58
2023-02-09T17:54:56.213Z,54.69
2023-02-09T17:57:28.329Z,54.27
2023-02-09T18:00:00.353Z,54.56
2023-02-09T18:02:32.326Z,54.76
2023-02-09T18:05:04.484Z,54.83
2023-02-09T18:07:36.428Z,54.44
2023-02-09T18:10:08.375Z,54.73
2023-02-09T18:12:40.778Z,54.77
2023-02-09T18:15:27.740Z,54.72
2023-02-09T18:17:59.855Z,54.76
2023-02-09T18:20:33.742Z,54.72
2023-02-09T18:23:06.060Z,55.10
2023-02-09T18:25:38.896Z,55.07
2023-02-09T18:28:10.997Z,54.86
2023-02-09T18:30:44.315Z,55.19
2023-02-09T18:33:16.782Z,55.19
2023-02-09T18:35:49.034Z,55.23
2023-02-09T18:38:21.149Z,55.24
2023-02-09T18:40:53.613Z,55.41
2023-02-09T18:43:25.610Z,55.61
2023-02-09T18:45:58.224Z,55.94
2023-02-09T18:48:30.229Z,56.05
2023-02-09T18:51:02.185Z,56.07
2023-02-09T18:53:35.448Z,56.02
2023-02-09T18:56:07.514Z,56.26
2023-02-09T18:58:39.510Z,56.64
2023-02-09T19:01:14.589Z,56.71
2023-02-09T19:03:48.825Z,56.68
2023-02-09T19:06:22.100Z,57.18
2023-02-09T19:08:54.437Z,57.04
2023-02-09T19:11:26.528Z,57.24
2023-02-09T19:14:16.853Z,57.04
2023-02-09T19:16:48.782Z,57.44
2023-02-09T19:19:20.889Z,57.62
2023-02-09T19:21:53.105Z,57.30
2023-02-09T19:24:25.051Z,57.29
2023-02-09T19:26:56.992Z,57.30
2023-02-09T19:29:29.394Z,57.97
2023-02-09T19:32:03.152Z,57.47
2023-02-09T19:34:37.340Z,57.46
2023-02-09T19:37:11.351Z,57.86
2023-02-09T19:39:52.601Z,57.53
2023-02-09T19:42:24.551Z,57.76
2023-02-09T19:44:56.534Z,57.95
2023-02-09T19:47:28.911Z,58.03
2023-02-09T19:50:01.001Z,57.93
2023-02-09T19:52:35.430Z,57.68
2023-02-09T19:55:07.635Z,57.72
2023-02-09T19:57:39.595Z,58.02
2023-02-09T20:00:18.845Z,58.00
2023-02-09T20:02:50.901Z,58.53
2023-02-09T20:05:22.909Z,58.30
2023-02-09T20:07:54.820Z,58.10
2023-02-09T20:10:26.864Z,57.86
2023-02-09T20:12:58.978Z,58.47
2023-02-09T20:15:30.904Z,58.42
2023-02-09T20:18:02.946Z,58.32
2023-02-09T20:20:34.949Z,58.40
2023-02-09T20:23:07.068Z,58.34
2023-02-09T20:25:43.857Z,58.47
2023-02-09T20:28:15.945Z,58.22
2023-02-09T20:30:48.464Z,58.26
2023-02-09T20:33:20.831Z,58.64
2023-02-09T20:35:53.321Z,58.42
2023-02-09T20:38:25.479Z,58.27
2023-02-09T20:40:57.470Z,58.68
2023-02-09T20:43:48.133Z,58.38
2023-02-09T20:46:39.839Z,58.64
2023-02-09T20:49:15.391Z,58.16
2023-02-09T20:51:47.859Z,58.58
2023-02-09T20:54:19.809Z,58.28
2023-02-09T20:56:51.759Z,58.80
2023-02-09T20:59:24.721Z,58.96
2023-02-09T21:01:56.874Z,58.38
2023-02-09T21:04:30.409Z,57.92
2023-02-09T21:07:04.642Z,57.95
2023-02-09T21:09:36.734Z,58.56
2023-02-09T21:12:09.286Z,58.16
2023-02-09T21:14:45.244Z,58.47
2023-02-09T21:17:19.382Z,58.32
2023-02-09T21:19:51.383Z,58.13
2023-02-09T21:22:23.646Z,57.86
2023-02-09T21:24:55.564Z,57.90
2023-02-09T21:27:27.666Z,57.89
2023-02-09T21:30:00.237Z,57.35
2023-02-09T21:32:35.107Z,57.02
2023-02-09T21:35:10.527Z,57.51
2023-02-09T21:37:43.223Z,57.15
2023-02-09T21:40:16.503Z,56.98
2023-02-09T21:42:49.707Z,57.33
2023-02-09T21:45:21.705Z,57.33
2023-02-09T21:47:53.885Z,57.54
2023-02-09T21:50:26.642Z,57.69
2023-02-09T21:52:59.818Z,57.17
2023-02-09T21:55:31.828Z,57.09
2023-02-09T21:58:03.760Z,57.28
2023-02-09T22:00:35.750Z,57.24
2023-02-09T22:03:07.733Z,57.27
2023-02-09T22:05:39.672Z,57.03
2023-02-09T22:08:11.704Z,57.43
2023-02-09T22:10:43.627Z,57.28
2023-02-09T22:13:15.756Z,57.44
2023-02-09T22:15:47.794Z,57.19
2023-02-09T22:18:19.658Z,57.22
2023-02-09T22:20:52.213Z,57.15
2023-02-09T22:23:24.258Z,57.50
2023-02-09T22:26:04.688Z,57.50
2023-02-09T22:28:37.203Z,57.76
2023-02-09T22:31:12.251Z,57.11
2023-02-09T22:33:44.389Z,57.48
2023-02-09T22:36:18.672Z,57.60
2023-02-09T22:38:51.566Z,56.99
2023-02-09T22:41:23.983Z,57.50
2023-02-09T22:44:01.113Z,57.57
2023-02-09T22:46:39.081Z,57.38
2023-02-09T22:49:18.604Z,57.72
2023-02-09T22:51:50.965Z,57.47
2023-02-09T22:54:23.193Z,57.48
2023-02-09T22:56:55.159Z,57.48
2023-02-09T22:59:27.288Z,57.28
2023-02-09T23:01:59.268Z,57.36
2023-02-09T23:04:32.486Z,57.15
2023-02-09T23:07:05.382Z,56.90
2023-02-09T23:09:37.443Z,57.33
2023-02-09T23:12:09.428Z,57.13
2023-02-09T23:14:41.402Z,57.10
2023-02-09T23:17:13.700Z,57.24
2023-02-09T23:19:45.985Z,57.39
2023-02-09T23:22:18.034Z,57.33
2023-02-09T23:24:49.997Z,57.44
2023-02-09T23:27:21.965Z,57.14
2023-02-09T23:29:55.154Z,57.46
2023-02-09T23:32:27.557Z,57.63
2023-02-09T23:37:38.432Z,56.97
2023-02-09T23:40:11.440Z,57.99
2023-02-09T23:42:43.305Z,58.27
2023-02-09T23:45:15.493Z,57.51
2023-02-09T23:47:47.528Z,58.01
2023-02-09T23:50:19.614Z,58.18
2023-02-09T23:52:51.603Z,57.87
2023-02-09T23:55:23.566Z,57.92
2023-02-09T23:57:55.502Z,57.79
